Time;durP1;ratioP1;P1;durP2;ratioP2;P2;SDS_P1;SDS_P2;PMS_P1;PMS_P2;Temp;Humidity;BMP_temperature;BMP_pressure;BME280_temperature;BME280_humidity;BME280_pressure;Samples;Min_cycle;Max_cycle;Signal;HPM_P1;HPM_P2
2022/05/20 00:00:10;;;;;;;3.58;0.55;;;;;;;;;;5021898;28;20486;-76
2022/05/20 00:02:36;;;;;;;0.20;0.20;;;;;;;;;;5024519;28;21007;-75
2022/05/20 00:05:03;;;;;;;0.15;0.15;;;;;;;;;;5017916;28;20032;-75
2022/05/20 00:07:29;;;;;;;;;;;;;;;;;;5023384;28;20025;-75
2022/05/20 00:09:55;;;;;;;0.52;0.45;;;;;;;;;;5026374;28;19916;-76
2022/05/20 00:12:21;;;;;;;1.88;0.90;;;;;;;;;;5018594;28;20070;-76
2022/05/20 00:14:47;;;;;;;0.10;0.10;;;;;;;;;;5003391;28;20999;-76
2022/05/20 00:17:13;;;;;;;0.30;0.30;;;;;;;;;;5023981;28;20503;-75
2022/05/20 00:19:39;;;;;;;1.02;0.65;;;;;;;;;;5027779;28;20066;-76
2022/05/20 00:22:06;;;;;;;0.20;0.20;;;;;;;;;;5020741;28;20167;-75
2022/05/20 00:24:32;;;;;;;;;;;;;;;;;;5020636;28;20075;-75
2022/05/20 00:26:58;;;;;;;4.75;1.25;;;;;;;;;;5013104;28;19920;-75
2022/05/20 00:29:24;;;;;;;0.75;0.63;;;;;;;;;;5028501;28;20064;-74
2022/05/20 00:31:50;;;;;;;4.65;0.90;;;;;;;;;;5034565;28;20047;-75
2022/05/20 00:34:16;;;;;;;0.57;0.40;;;;;;;;;;5020600;28;20048;-75
2022/05/20 00:36:42;;;;;;;0.20;0.20;;;;;;;;;;5020225;28;20100;-75
2022/05/20 00:39:09;;;;;;;0.03;0.03;;;;;;;;;;5000913;28;20348;-75
2022/05/20 00:41:35;;;;;;;1.90;1.08;;;;;;;;;;5019943;28;20033;-75
2022/05/20 00:44:01;;;;;;;0.13;0.13;;;;;;;;;;5018989;28;20033;-74
2022/05/20 00:46:27;;;;;;;0.20;0.20;;;;;;;;;;5017230;28;20052;-74
2022/05/20 00:49:01;;;;;;;0.70;0.57;;;;;;;;;;5021358;28;20095;-74
2022/05/20 00:51:30;;;;;;;0.30;0.30;;;;;;;;;;5025336;28;20037;-74
2022/05/20 00:54:34;;;;;;;0.25;0.20;;;;;;;;;;5024438;28;20029;-74
2022/05/20 00:57:03;;;;;;;0.47;0.47;;;;;;;;;;4946198;28;20113;-74
2022/05/20 00:59:31;;;;;;;11.77;0.82;;;;;;;;;;4940319;28;20081;-75
2022/05/20 01:02:01;;;;;;;0.75;0.60;;;;;;;;;;4946313;28;20042;-75
2022/05/20 01:04:27;;;;;;;0.45;0.45;;;;;;;;;;4945486;28;22174;-75
2022/05/20 01:06:53;;;;;;;0.30;0.30;;;;;;;;;;4948553;28;20051;-74
2022/05/20 01:09:20;;;;;;;3.10;0.90;;;;;;;;;;4944215;28;20047;-75
2022/05/20 01:11:46;;;;;;;0.60;0.60;;;;;;;;;;4945208;28;20034;-74
2022/05/20 01:14:19;;;;;;;2.20;1.25;;;;;;;;;;4946353;28;20050;-74
2022/05/20 01:16:45;;;;;;;0.10;0.10;;;;;;;;;;4946058;28;20358;-74
2022/05/20 01:19:14;;;;;;;0.40;0.40;;;;;;;;;;4945931;28;20206;-75
2022/05/20 01:21:40;;;;;;;0.55;0.55;;;;;;;;;;4947011;28;20131;-74
2022/05/20 01:24:06;;;;;;;7.63;2.30;;;;;;;;;;4947661;28;20042;-75
2022/05/20 01:26:32;;;;;;;0.00;0.00;;;;;;;;;;4946815;28;20038;-74
2022/05/20 01:28:58;;;;;;;1.20;0.32;;;;;;;;;;5025328;28;20072;-75
2022/05/20 01:31:24;;;;;;;1.65;0.95;;;;;;;;;;5026133;28;20493;-75
2022/05/20 01:33:52;;;;;;;3.20;0.35;;;;;;;;;;5021089;28;20782;-74
2022/05/20 01:36:20;;;;;;;3.55;1.08;;;;;;;;;;5021566;28;20399;-74
2022/05/20 01:38:46;;;;;;;0.00;0.00;;;;;;;;;;5027606;28;20052;-76
2022/05/20 01:41:27;;;;;;;0.13;0.13;;;;;;;;;;5027097;28;20044;-74
2022/05/20 01:43:59;;;;;;;0.10;0.10;;;;;;;;;;5023287;28;20108;-74
2022/05/20 01:46:34;;;;;;;0.15;0.15;;;;;;;;;;5025299;28;20056;-75
2022/05/20 01:49:12;;;;;;;4.57;0.75;;;;;;;;;;5024866;28;20106;-75
2022/05/20 01:52:01;;;;;;;0.30;0.30;;;;;;;;;;5027100;28;20029;-75
2022/05/20 01:54:27;;;;;;;0.00;0.00;;;;;;;;;;5025703;28;20500;-75
2022/05/20 01:56:56;;;;;;;0.10;0.10;;;;;;;;;;5024763;28;20039;-75
2022/05/20 01:59:33;;;;;;;0.00;0.00;;;;;;;;;;5024788;28;20038;-75
2022/05/20 02:02:02;;;;;;;0.13;0.13;;;;;;;;;;5010907;28;20028;-75
2022/05/20 02:04:43;;;;;;;1.92;0.70;;;;;;;;;;5010072;28;21095;-75
2022/05/20 02:07:12;;;;;;;0.28;0.28;;;;;;;;;;5030431;28;20031;-75
2022/05/20 02:09:44;;;;;;;0.20;0.20;;;;;;;;;;5023582;28;20032;-75
2022/05/20 02:12:12;;;;;;;0.10;0.10;;;;;;;;;;5025106;28;20922;-75
2022/05/20 02:14:42;;;;;;;0.85;0.20;;;;;;;;;;5025192;28;20675;-75
2022/05/20 02:17:08;;;;;;;0.08;0.08;;;;;;;;;;5025392;28;20029;-75
2022/05/20 02:19:38;;;;;;;0.05;0.05;;;;;;;;;;5027382;28;20045;-75
2022/05/20 02:22:06;;;;;;;0.55;0.30;;;;;;;;;;5023163;28;20033;-74
2022/05/20 02:24:34;;;;;;;0.10;0.10;;;;;;;;;;5030045;28;20032;-76
2022/05/20 02:27:02;;;;;;;0.25;0.15;;;;;;;;;;5030345;28;20029;-75
2022/05/20 02:29:31;;;;;;;0.47;0.30;;;;;;;;;;5025739;28;20538;-75
2022/05/20 02:32:20;;;;;;;0.00;0.00;;;;;;;;;;5028106;28;20037;-74
2022/05/20 02:34:46;;;;;;;0.50;0.50;;;;;;;;;;5026586;28;20028;-74
2022/05/20 02:37:20;;;;;;;0.10;0.10;;;;;;;;;;5024845;28;20040;-75
2022/05/20 02:39:46;;;;;;;1.92;0.77;;;;;;;;;;5026663;28;20037;-74
2022/05/20 02:42:12;;;;;;;0.00;0.00;;;;;;;;;;5022669;28;20041;-75
2022/05/20 02:44:39;;;;;;;0.43;0.43;;;;;;;;;;5027772;28;20159;-75
2022/05/20 02:47:05;;;;;;;;;;;;;;;;;;5031204;28;20102;-74
2022/05/20 02:49:31;;;;;;;0.05;0.05;;;;;;;;;;5028382;28;20472;-74
2022/05/20 02:51:57;;;;;;;3.33;1.20;;;;;;;;;;5025676;28;20028;-74
2022/05/20 02:54:23;;;;;;;2.00;0.75;;;;;;;;;;5023420;28;20039;-74
2022/05/20 02:56:49;;;;;;;0.20;0.20;;;;;;;;;;5020896;28;20053;-75
2022/05/20 03:04:45;;;;;;;0.75;0.45;;;;;;;;;;5031371;28;20063;-75
2022/05/20 03:07:13;;;;;;;0.00;0.00;;;;;;;;;;5028107;28;20116;-75
2022/05/20 03:09:39;;;;;;;0.00;0.00;;;;;;;;;;5011862;28;20036;-75
2022/05/20 03:12:05;;;;;;;0.28;0.28;;;;;;;;;;5032015;28;20040;-75
2022/05/20 03:14:32;;;;;;;0.40;0.40;;;;;;;;;;5032103;28;20029;-75
2022/05/20 03:16:58;;;;;;;;;;;;;;;;;;5025626;28;20037;-75
2022/05/20 03:19:24;;;;;;;0.30;0.30;;;;;;;;;;5024189;28;19928;-73
2022/05/20 03:21:50;;;;;;;0.47;0.45;;;;;;;;;;5032592;28;20033;-73
2022/05/20 03:24:16;;;;;;;1.85;0.75;;;;;;;;;;5030867;28;20037;-74
2022/05/20 03:26:43;;;;;;;0.20;0.20;;;;;;;;;;5031901;28;20029;-74
2022/05/20 03:29:09;;;;;;;;;;;;;;;;;;5031152;28;20503;-73
2022/05/20 03:31:36;;;;;;;0.25;0.25;;;;;;;;;;5029377;28;19917;-74
2022/05/20 03:34:05;;;;;;;0.80;0.75;;;;;;;;;;5027795;28;20120;-73
2022/05/20 03:36:32;;;;;;;19.98;0.55;;;;;;;;;;5028757;28;20032;-74
2022/05/20 03:38:58;;;;;;;0.30;0.30;;;;;;;;;;5030482;28;20033;-74
2022/05/20 03:41:24;;;;;;;1.50;1.13;;;;;;;;;;5022935;28;20036;-74
2022/05/20 03:43:51;;;;;;;0.70;0.40;;;;;;;;;;5030195;28;20079;-74
2022/05/20 03:46:17;;;;;;;0.85;0.85;;;;;;;;;;5035028;28;20610;-74
2022/05/20 03:48:43;;;;;;;0.15;0.15;;;;;;;;;;5032555;28;20025;-73
2022/05/20 03:51:10;;;;;;;0.82;0.82;;;;;;;;;;5029520;28;20043;-73
2022/05/20 03:53:36;;;;;;;0.17;0.17;;;;;;;;;;5024876;28;20135;-74
2022/05/20 03:56:02;;;;;;;0.08;0.08;;;;;;;;;;5025094;28;20104;-74
2022/05/20 03:58:29;;;;;;;4.45;1.13;;;;;;;;;;5031211;28;20039;-74
2022/05/20 04:03:43;;;;;;;0.25;0.25;;;;;;;;;;5029903;28;20807;-74
2022/05/20 04:06:09;;;;;;;0.38;0.38;;;;;;;;;;5031702;28;20032;-74
2022/05/20 04:08:35;;;;;;;0.43;0.30;;;;;;;;;;5031084;28;20040;-74
2022/05/20 04:11:01;;;;;;;1.10;1.00;;;;;;;;;;5012710;28;20036;-74
2022/05/20 04:13:27;;;;;;;0.10;0.10;;;;;;;;;;5030331;28;20764;-74
2022/05/20 04:15:54;;;;;;;0.00;0.00;;;;;;;;;;5011199;28;20038;-74
2022/05/20 04:18:20;;;;;;;0.65;0.10;;;;;;;;;;5026433;28;20038;-74
2022/05/20 04:20:47;;;;;;;0.47;0.45;;;;;;;;;;5027394;28;20038;-73
2022/05/20 04:23:16;;;;;;;;;;;;;;;;;;5026798;28;20489;-74
2022/05/20 04:25:44;;;;;;;0.10;0.10;;;;;;;;;;5033422;28;19916;-74
2022/05/20 04:28:10;;;;;;;0.20;0.20;;;;;;;;;;5030785;28;20052;-74
2022/05/20 04:30:37;;;;;;;0.20;0.20;;;;;;;;;;5026606;28;20511;-74
2022/05/20 04:33:03;;;;;;;0.13;0.13;;;;;;;;;;5026409;28;20036;-74
2022/05/20 04:35:29;;;;;;;20.10;0.47;;;;;;;;;;5026431;28;20025;-73
2022/05/20 04:37:55;;;;;;;19.63;1.00;;;;;;;;;;5025310;28;20112;-73
2022/05/20 04:40:21;;;;;;;0.08;0.08;;;;;;;;;;5026293;28;20041;-73
2022/05/20 04:48:16;;;;;;;1.48;0.55;;;;;;;;;;5030707;28;20488;-75
2022/05/20 04:50:42;;;;;;;2.33;1.13;;;;;;;;;;5029320;28;20045;-75
2022/05/20 04:53:09;;;;;;;0.45;0.40;;;;;;;;;;5029372;28;20158;-75
2022/05/20 04:55:35;;;;;;;0.40;0.40;;;;;;;;;;5029457;28;20136;-74
2022/05/20 04:58:02;;;;;;;0.30;0.30;;;;;;;;;;5029621;28;20772;-75
2022/05/20 05:00:29;;;;;;;3.13;1.63;;;;;;;;;;5027061;28;20088;-77
2022/05/20 05:02:56;;;;;;;0.52;0.52;;;;;;;;;;5029648;28;20431;-76
2022/05/20 05:05:23;;;;;;;0.05;0.05;;;;;;;;;;5013548;28;20115;-74
2022/05/20 05:07:50;;;;;;;0.88;0.15;;;;;;;;;;5033213;28;20029;-74
2022/05/20 05:10:17;;;;;;;0.30;0.25;;;;;;;;;;5021159;28;20061;-75
2022/05/20 05:12:43;;;;;;;0.30;0.30;;;;;;;;;;5033303;28;20107;-75
2022/05/20 05:15:11;;;;;;;0.00;0.00;;;;;;;;;;5037659;28;20021;-75
2022/05/20 05:18:25;;;;;;;0.10;0.10;;;;;;;;;;5038522;28;20044;-75
2022/05/20 05:20:24;;;;;;;0.00;0.00;;;;;;;;;;5020887;28;20049;-75
2022/05/20 05:22:51;;;;;;;0.22;0.22;;;;;;;;;;5028858;28;20036;-76
2022/05/20 05:25:17;;;;;;;0.73;0.32;;;;;;;;;;5030750;28;20602;-77
2022/05/20 05:27:43;;;;;;;1.35;1.02;;;;;;;;;;5032464;28;20564;-77
2022/05/20 05:30:11;;;;;;;0.50;0.50;;;;;;;;;;5032151;28;20072;-77
2022/05/20 05:32:38;;;;;;;0.13;0.13;;;;;;;;;;5029851;28;20033;-78
2022/05/20 05:35:04;;;;;;;;;;;;;;;;;;5033744;28;20480;-78
2022/05/20 05:37:30;;;;;;;;;;;;;;;;;;5038411;28;19935;-78
2022/05/20 05:39:56;;;;;;;0.30;0.30;;;;;;;;;;5024923;28;19925;-79
2022/05/20 05:42:22;;;;;;;0.35;0.32;;;;;;;;;;5014340;28;20190;-77
2022/05/20 05:44:48;;;;;;;1.15;0.77;;;;;;;;;;5039693;28;20039;-78
2022/05/20 05:47:15;;;;;;;0.00;0.00;;;;;;;;;;5025023;28;20045;-78
2022/05/20 05:49:41;;;;;;;0.65;0.57;;;;;;;;;;5043600;28;20094;-79
2022/05/20 05:52:07;;;;;;;0.80;0.50;;;;;;;;;;5024911;28;20052;-78
2022/05/20 05:54:35;;;;;;;0.20;0.20;;;;;;;;;;5025683;28;20576;-79
2022/05/20 05:57:01;;;;;;;0.03;0.03;;;;;;;;;;5043123;28;20539;-78
2022/05/20 05:59:28;;;;;;;2.17;0.80;;;;;;;;;;5042445;28;20068;-78
2022/05/20 06:02:01;;;;;;;1.05;0.45;;;;;;;;;;5040965;28;20021;-79
2022/05/20 06:04:27;;;;;;;4.18;1.38;;;;;;;;;;5041543;28;20578;-78
2022/05/20 06:06:53;;;;;;;;;;;;;;;;;;5043382;28;20032;-78
2022/05/20 06:09:19;;;;;;;1.02;0.63;;;;;;;;;;5041347;28;19913;-80
2022/05/20 06:11:45;;;;;;;0.00;0.00;;;;;;;;;;5043592;28;20037;-78
2022/05/20 06:14:11;;;;;;;;;;;;;;;;;;5043184;28;20033;-78
2022/05/20 06:16:38;;;;;;;0.45;0.45;;;;;;;;;;5025261;28;19920;-77
2022/05/20 06:19:05;;;;;;;0.52;0.52;;;;;;;;;;5042829;28;20039;-77
2022/05/20 06:21:31;;;;;;;0.75;0.32;;;;;;;;;;5042297;28;20028;-76
2022/05/20 06:24:00;;;;;;;0.43;0.43;;;;;;;;;;5042469;28;20562;-76
2022/05/20 06:26:26;;;;;;;0.47;0.20;;;;;;;;;;5042420;28;20033;-77
2022/05/20 06:28:52;;;;;;;;;;;;;;;;;;5043329;28;20099;-77
2022/05/20 06:31:18;;;;;;;0.15;0.15;;;;;;;;;;5041800;28;20463;-79
2022/05/20 06:33:45;;;;;;;0.15;0.15;;;;;;;;;;5040052;28;20032;-79
2022/05/20 06:41:41;;;;;;;1.15;0.70;;;;;;;;;;5042969;28;20118;-80
2022/05/20 06:44:07;;;;;;;;;;;;;;;;;;5042613;28;20032;-80
2022/05/20 06:46:33;;;;;;;0.43;0.30;;;;;;;;;;5040377;28;19920;-80
2022/05/20 06:49:00;;;;;;;2.42;0.80;;;;;;;;;;5040219;28;20803;-80
2022/05/20 06:51:27;;;;;;;2.47;1.20;;;;;;;;;;5032442;28;20133;-80
2022/05/20 06:53:54;;;;;;;0.13;0.13;;;;;;;;;;5038484;28;20025;-80
2022/05/20 06:56:21;;;;;;;6.07;1.75;;;;;;;;;;5034528;28;20056;-80
2022/05/20 06:58:48;;;;;;;0.20;0.20;;;;;;;;;;5041399;28;20112;-80
2022/05/20 07:01:14;;;;;;;0.30;0.30;;;;;;;;;;5042241;28;20048;-80
2022/05/20 07:03:40;;;;;;;0.25;0.20;;;;;;;;;;5042634;28;20024;-80
2022/05/20 07:06:07;;;;;;;0.00;0.00;;;;;;;;;;5043295;28;20071;-80
2022/05/20 07:08:34;;;;;;;0.13;0.13;;;;;;;;;;5041931;28;20029;-80
2022/05/20 07:11:02;;;;;;;2.20;0.60;;;;;;;;;;5041784;28;20094;-80
2022/05/20 07:13:29;;;;;;;5.53;0.75;;;;;;;;;;5041830;28;20040;-80
2022/05/20 07:15:55;;;;;;;0.32;0.32;;;;;;;;;;5042080;28;20131;-80
2022/05/20 07:18:21;;;;;;;0.38;0.38;;;;;;;;;;5041167;28;20060;-80
2022/05/20 07:20:47;;;;;;;18.98;0.90;;;;;;;;;;5042284;28;20864;-80
2022/05/20 07:23:13;;;;;;;0.57;0.40;;;;;;;;;;5041824;28;20103;-80
2022/05/20 07:25:39;;;;;;;1.35;0.80;;;;;;;;;;5041454;28;20037;-80
2022/05/20 07:28:05;;;;;;;0.25;0.13;;;;;;;;;;5041827;28;20028;-80
2022/05/20 07:30:32;;;;;;;0.25;0.25;;;;;;;;;;5041565;28;20104;-80
2022/05/20 07:32:58;;;;;;;1.65;0.50;;;;;;;;;;5041840;28;20133;-80
2022/05/20 07:35:24;;;;;;;0.30;0.30;;;;;;;;;;5040868;28;20083;-80
2022/05/20 07:37:51;;;;;;;0.00;0.00;;;;;;;;;;5041413;28;20024;-80
2022/05/20 07:40:17;;;;;;;0.05;0.05;;;;;;;;;;5041933;28;20052;-81
2022/05/20 07:42:43;;;;;;;0.82;0.68;;;;;;;;;;5042312;28;20056;-81
2022/05/20 07:45:09;;;;;;;0.28;0.10;;;;;;;;;;5038203;28;20075;-80
2022/05/20 07:47:35;;;;;;;0.17;0.17;;;;;;;;;;5041019;28;20464;-80
2022/05/20 07:50:04;;;;;;;0.13;0.13;;;;;;;;;;5044393;28;20045;-81
2022/05/20 07:55:18;;;;;;;0.08;0.08;;;;;;;;;;5045025;28;20505;-81
2022/05/20 07:57:44;;;;;;;0.57;0.47;;;;;;;;;;5045330;28;20029;-81
2022/05/20 08:00:12;;;;;;;1.00;0.57;;;;;;;;;;5046003;28;20041;-80
2022/05/20 08:02:39;;;;;;;0.10;0.10;;;;;;;;;;5045002;28;20086;-81
2022/05/20 08:05:07;;;;;;;0.90;0.70;;;;;;;;;;5044556;28;20037;-81
2022/05/20 08:07:44;;;;;;;0.50;0.38;;;;;;;;;;5044252;28;20108;-81
2022/05/20 08:10:10;;;;;;;0.20;0.00;;;;;;;;;;5045095;28;20029;-81
2022/05/20 08:12:36;;;;;;;0.30;0.30;;;;;;;;;;5045393;28;20044;-81
2022/05/20 08:15:03;;;;;;;0.20;0.20;;;;;;;;;;5025761;28;20052;-81
2022/05/20 08:17:29;;;;;;;0.05;0.05;;;;;;;;;;5045278;28;20033;-80
2022/05/20 08:19:56;;;;;;;0.65;0.08;;;;;;;;;;5044947;28;20037;-81
2022/05/20 08:22:22;;;;;;;0.20;0.20;;;;;;;;;;5026914;28;20103;-81
2022/05/20 08:24:52;;;;;;;0.35;0.20;;;;;;;;;;5045386;28;20025;-81
2022/05/20 08:27:18;;;;;;;1.65;0.75;;;;;;;;;;5045165;28;20133;-81
2022/05/20 08:29:44;;;;;;;0.10;0.10;;;;;;;;;;5027378;28;20028;-81
2022/05/20 08:32:10;;;;;;;0.85;0.70;;;;;;;;;;5044977;28;20049;-81
2022/05/20 08:34:36;;;;;;;0.20;0.20;;;;;;;;;;5044621;28;20072;-81
2022/05/20 08:37:02;;;;;;;0.20;0.20;;;;;;;;;;5044452;28;20059;-81
2022/05/20 08:39:28;;;;;;;0.10;0.10;;;;;;;;;;5026811;28;20037;-81
2022/05/20 08:41:54;;;;;;;0.10;0.10;;;;;;;;;;5045462;28;20021;-81
2022/05/20 08:44:22;;;;;;;0.20;0.20;;;;;;;;;;5044189;28;20033;-81
2022/05/20 08:46:48;;;;;;;0.10;0.10;;;;;;;;;;5044359;28;20071;-81
2022/05/20 08:49:16;;;;;;;0.10;0.10;;;;;;;;;;5044169;28;20131;-81
2022/05/20 08:51:47;;;;;;;1.45;0.63;;;;;;;;;;5028568;28;20508;-81
2022/05/20 08:54:13;;;;;;;0.38;0.22;;;;;;;;;;5041326;28;20037;-81
2022/05/20 08:56:39;;;;;;;0.20;0.20;;;;;;;;;;5044902;28;20119;-81
2022/05/20 08:59:07;;;;;;;1.25;0.20;;;;;;;;;;5043728;28;20033;-81
2022/05/20 09:01:35;;;;;;;1.33;0.82;;;;;;;;;;5026339;28;20112;-81
2022/05/20 09:04:01;;;;;;;0.10;0.00;;;;;;;;;;5044011;28;20057;-81
2022/05/20 09:06:28;;;;;;;0.20;0.17;;;;;;;;;;5044593;28;20055;-81
2022/05/20 09:09:03;;;;;;;0.32;0.30;;;;;;;;;;5041457;28;20048;-81
2022/05/20 09:11:29;;;;;;;0.55;0.40;;;;;;;;;;5043605;28;20029;-81
2022/05/20 09:17:11;;;;;;;0.30;0.30;;;;;;;;;;5043265;28;20055;-81
2022/05/20 09:19:38;;;;;;;0.10;0.10;;;;;;;;;;5043254;28;20044;-81
2022/05/20 09:22:14;;;;;;;0.00;0.00;;;;;;;;;;5043399;28;20708;-81
2022/05/20 09:24:42;;;;;;;0.88;0.88;;;;;;;;;;5043589;28;20574;-80
2022/05/20 09:27:19;;;;;;;0.22;0.20;;;;;;;;;;5044446;28;20608;-81
2022/05/20 09:29:48;;;;;;;0.10;0.10;;;;;;;;;;5042433;28;20120;-81
2022/05/20 09:32:47;;;;;;;0.15;0.15;;;;;;;;;;5025133;28;20527;-81
2022/05/20 09:35:19;;;;;;;0.17;0.10;;;;;;;;;;4946929;28;20061;-81
2022/05/20 09:37:49;;;;;;;0.22;0.22;;;;;;;;;;4946667;28;20050;-81
2022/05/20 09:40:23;;;;;;;0.65;0.40;;;;;;;;;;4946661;28;20045;-82
2022/05/20 09:43:06;;;;;;;3.20;1.65;;;;;;;;;;4946905;28;20031;-81
2022/05/20 09:45:37;;;;;;;0.05;0.05;;;;;;;;;;4944914;28;20581;-81
2022/05/20 09:48:03;;;;;;;1.20;0.57;;;;;;;;;;4944379;28;20039;-81
2022/05/20 09:50:34;;;;;;;0.05;0.05;;;;;;;;;;4946733;28;20039;-81
2022/05/20 09:53:00;;;;;;;0.43;0.43;;;;;;;;;;4946635;28;20034;-81
2022/05/20 09:55:31;;;;;;;0.35;0.32;;;;;;;;;;4946809;28;20057;-81
2022/05/20 09:58:08;;;;;;;0.20;0.20;;;;;;;;;;4946278;28;20053;-81
2022/05/20 10:00:35;;;;;;;0.10;0.10;;;;;;;;;;4945612;28;20122;-81
2022/05/20 10:03:10;;;;;;;0.57;0.45;;;;;;;;;;4944854;28;20133;-81
2022/05/20 10:05:54;;;;;;;0.50;0.50;;;;;;;;;;4946947;28;20517;-81
2022/05/20 10:08:23;;;;;;;0.93;0.60;;;;;;;;;;4946699;28;20054;-81
2022/05/20 10:10:52;;;;;;;0.10;0.10;;;;;;;;;;4995134;28;20287;-81
2022/05/20 10:13:38;;;;;;;1.67;0.57;;;;;;;;;;5039337;28;20407;-81
2022/05/20 10:16:23;;;;;;;0.85;0.50;;;;;;;;;;5043078;28;20119;-82
2022/05/20 10:19:01;;;;;;;0.68;0.65;;;;;;;;;;5028008;28;20083;-81
2022/05/20 10:21:46;;;;;;;0.25;0.20;;;;;;;;;;5042744;28;20041;-81
2022/05/20 10:24:37;;;;;;;0.80;0.55;;;;;;;;;;5039706;28;20044;-81
2022/05/20 10:27:03;;;;;;;0.20;0.20;;;;;;;;;;4947729;28;20043;-81
2022/05/20 10:32:34;;;;;;;1.75;0.17;;;;;;;;;;4950560;28;20090;-81
2022/05/20 10:35:01;;;;;;;1.15;0.50;;;;;;;;;;4950676;28;20059;-81
2022/05/20 10:37:47;;;;;;;0.10;0.10;;;;;;;;;;4950299;28;20046;-81
2022/05/20 10:40:16;;;;;;;0.52;0.47;;;;;;;;;;4949756;28;20066;-81
2022/05/20 10:42:48;;;;;;;0.55;0.20;;;;;;;;;;4961497;28;20045;-80
2022/05/20 10:48:35;;;;;;;0.00;0.00;;;;;;;;;;4958486;28;20129;-81
2022/05/20 10:51:01;;;;;;;18.33;1.38;;;;;;;;;;4957948;28;20035;-81
2022/05/20 10:53:42;;;;;;;5.43;0.95;;;;;;;;;;4956588;28;20317;-82
2022/05/20 10:56:27;;;;;;;2.17;0.75;;;;;;;;;;4953218;28;20266;-82
2022/05/20 10:58:53;;;;;;;3.30;0.98;;;;;;;;;;4954763;28;20106;-82
2022/05/20 11:01:22;;;;;;;3.10;0.88;;;;;;;;;;4957346;28;20043;-82
2022/05/20 11:03:57;;;;;;;0.10;0.10;;;;;;;;;;4983748;28;20037;-82
2022/05/20 11:06:30;;;;;;;2.28;0.88;;;;;;;;;;5035942;28;20087;-82
2022/05/20 11:09:15;;;;;;;0.20;0.20;;;;;;;;;;5028093;28;20041;-82
2022/05/20 11:11:57;;;;;;;2.33;0.40;;;;;;;;;;5020501;28;20045;-82
2022/05/20 11:14:31;;;;;;;1.88;0.68;;;;;;;;;;5040643;28;20020;-82
2022/05/20 11:17:16;;;;;;;0.20;0.20;;;;;;;;;;5023646;28;20033;-81
2022/05/20 11:19:49;;;;;;;0.30;0.28;;;;;;;;;;5039098;28;20132;-82
2022/05/20 11:22:21;;;;;;;0.10;0.10;;;;;;;;;;5030931;28;20514;-82
2022/05/20 11:24:50;;;;;;;0.47;0.40;;;;;;;;;;5012104;28;20072;-82
2022/05/20 11:27:26;;;;;;;0.85;0.45;;;;;;;;;;5036641;28;20116;-82
2022/05/20 11:29:53;;;;;;;0.17;0.17;;;;;;;;;;5040997;28;20130;-82
2022/05/20 11:32:25;;;;;;;0.65;0.30;;;;;;;;;;5032686;28;20071;-82
2022/05/20 11:34:54;;;;;;;1.30;0.60;;;;;;;;;;5030707;28;20505;-82
2022/05/20 11:37:28;;;;;;;0.75;0.70;;;;;;;;;;5032855;28;20032;-82
2022/05/20 11:40:12;;;;;;;1.23;0.55;;;;;;;;;;5038476;28;20595;-82
2022/05/20 11:42:38;;;;;;;0.60;0.57;;;;;;;;;;5032251;28;20578;-82
2022/05/20 11:45:16;;;;;;;3.60;0.80;;;;;;;;;;5030545;28;20028;-82
2022/05/20 11:47:47;;;;;;;0.43;0.35;;;;;;;;;;5039732;28;21157;-82
2022/05/20 11:50:24;;;;;;;0.13;0.10;;;;;;;;;;5036694;28;20033;-82
2022/05/20 11:53:12;;;;;;;1.35;0.88;;;;;;;;;;5035859;28;20047;-82
2022/05/20 11:55:39;;;;;;;0.47;0.47;;;;;;;;;;5037435;28;20032;-82
2022/05/20 11:58:07;;;;;;;0.40;0.40;;;;;;;;;;5030138;28;20033;-82
2022/05/20 12:00:37;;;;;;;0.65;0.65;;;;;;;;;;5034076;28;20037;-82
2022/05/20 12:03:05;;;;;;;0.80;0.63;;;;;;;;;;5022681;28;20824;-82
2022/05/20 12:05:33;;;;;;;0.10;0.10;;;;;;;;;;5026775;28;20116;-82
2022/05/20 12:08:00;;;;;;;0.10;0.10;;;;;;;;;;5037881;28;20068;-82
2022/05/20 12:10:32;;;;;;;0.22;0.22;;;;;;;;;;5015341;28;20033;-82
2022/05/20 12:13:17;;;;;;;0.20;0.20;;;;;;;;;;5030183;28;20036;-82
2022/05/20 12:15:45;;;;;;;0.35;0.35;;;;;;;;;;5038832;28;20356;-82
2022/05/20 12:24:12;;;;;;;0.10;0.10;;;;;;;;;;5042648;28;20052;-82
2022/05/20 12:26:45;;;;;;;0.38;0.38;;;;;;;;;;5042586;28;20043;-82
2022/05/20 12:29:30;;;;;;;0.05;0.05;;;;;;;;;;5044128;28;20033;-82
2022/05/20 12:31:56;;;;;;;0.20;0.20;;;;;;;;;;5044099;28;20047;-81
2022/05/20 12:34:21;;;;;;;;;;;;;;;;;;5021972;28;20033;-82
2022/05/20 12:36:47;;;;;;;0.25;0.25;;;;;;;;;;5044372;28;20688;-82
2022/05/20 12:39:16;;;;;;;0.60;0.35;;;;;;;;;;5044342;28;20064;-82
2022/05/20 12:41:44;;;;;;;0.52;0.15;;;;;;;;;;5043994;28;20124;-82
2022/05/20 12:44:16;;;;;;;1.75;1.02;;;;;;;;;;5044034;28;20025;-82
2022/05/20 12:47:01;;;;;;;0.40;0.40;;;;;;;;;;5044401;28;20128;-81
2022/05/20 12:49:31;;;;;;;0.17;0.17;;;;;;;;;;5043427;28;20028;-82
2022/05/20 12:52:06;;;;;;;0.77;0.50;;;;;;;;;;5043204;28;20400;-82
2022/05/20 12:54:32;;;;;;;0.83;0.73;;;;;;;;;;5043721;28;20043;-82
2022/05/20 12:56:58;;;;;;;;;;;;;;;;;;5045332;28;20032;-82
2022/05/20 12:59:24;;;;;;;3.00;0.50;;;;;;;;;;5043906;28;19921;-82
2022/05/20 13:01:57;;;;;;;0.20;0.20;;;;;;;;;;5043634;28;20096;-82
2022/05/20 13:04:23;;;;;;;0.45;0.25;;;;;;;;;;5044241;28;20033;-83
2022/05/20 13:06:50;;;;;;;0.05;0.05;;;;;;;;;;5044051;28;20029;-82
2022/05/20 13:09:24;;;;;;;4.13;0.43;;;;;;;;;;5044205;28;20039;-82
2022/05/20 13:11:50;;;;;;;2.13;0.85;;;;;;;;;;5044562;28;20061;-82
2022/05/20 13:14:20;;;;;;;;;;;;;;;;;;5041419;28;20032;-82
2022/05/20 13:16:56;;;;;;;0.90;0.85;;;;;;;;;;5023325;28;19951;-82
2022/05/20 13:19:45;;;;;;;0.00;0.00;;;;;;;;;;5025415;28;20149;-82
2022/05/20 13:22:13;;;;;;;4.78;1.08;;;;;;;;;;5022640;28;20036;-82
2022/05/20 13:24:39;;;;;;;0.43;0.40;;;;;;;;;;5032079;28;20075;-82
2022/05/20 13:27:11;;;;;;;2.55;0.95;;;;;;;;;;5037225;28;20026;-81
2022/05/20 13:29:38;;;;;;;0.30;0.03;;;;;;;;;;5037813;28;20374;-82
2022/05/20 13:32:30;;;;;;;0.30;0.30;;;;;;;;;;5036793;28;20056;-82
2022/05/20 13:34:58;;;;;;;4.93;1.20;;;;;;;;;;5033856;28;20037;-82
2022/05/20 13:37:26;;;;;;;0.32;0.32;;;;;;;;;;5035471;28;20052;-82
2022/05/20 13:39:54;;;;;;;0.00;0.00;;;;;;;;;;5029424;28;20032;-82
2022/05/20 13:42:23;;;;;;;0.55;0.55;;;;;;;;;;5028362;28;20029;-82
2022/05/20 13:44:49;;;;;;;0.90;0.55;;;;;;;;;;5032000;28;20029;-83
2022/05/20 13:50:01;;;;;;;1.00;0.73;;;;;;;;;;5033702;28;19954;-82
2022/05/20 13:52:27;;;;;;;2.35;1.15;;;;;;;;;;5030157;28;20029;-82
2022/05/20 13:54:57;;;;;;;0.25;0.22;;;;;;;;;;5037888;28;20136;-82
2022/05/20 13:57:35;;;;;;;0.30;0.30;;;;;;;;;;5033662;28;20675;-82
2022/05/20 14:00:19;;;;;;;0.57;0.30;;;;;;;;;;5030818;28;20956;-82
2022/05/20 14:02:50;;;;;;;0.28;0.28;;;;;;;;;;5031861;28;20029;-82
2022/05/20 14:05:25;;;;;;;0.32;0.17;;;;;;;;;;5020917;28;20032;-81
2022/05/20 14:07:56;;;;;;;0.97;0.40;;;;;;;;;;5036778;28;20071;-82
2022/05/20 14:10:31;;;;;;;0.30;0.20;;;;;;;;;;5031513;28;20033;-82
2022/05/20 14:13:01;;;;;;;6.03;1.23;;;;;;;;;;5028671;28;20171;-82
2022/05/20 14:15:27;;;;;;;1.88;1.27;;;;;;;;;;5038688;28;20108;-81
2022/05/20 14:17:59;;;;;;;0.85;0.68;;;;;;;;;;5026854;28;20040;-82
2022/05/20 14:20:26;;;;;;;0.30;0.30;;;;;;;;;;5028120;28;20029;-82
2022/05/20 14:22:52;;;;;;;4.75;1.27;;;;;;;;;;5017079;28;20049;-82
2022/05/20 14:25:18;;;;;;;0.57;0.20;;;;;;;;;;5029629;28;20116;-82
2022/05/20 14:27:46;;;;;;;0.03;0.03;;;;;;;;;;5031111;28;20031;-82
2022/05/20 14:30:14;;;;;;;0.52;0.30;;;;;;;;;;5042589;28;20039;-81
2022/05/20 14:32:40;;;;;;;1.30;1.17;;;;;;;;;;5025998;28;20048;-81
2022/05/20 14:35:07;;;;;;;0.10;0.10;;;;;;;;;;5030820;28;20119;-82
2022/05/20 14:37:34;;;;;;;0.32;0.30;;;;;;;;;;5034492;28;20069;-81
2022/05/20 14:40:04;;;;;;;0.20;0.08;;;;;;;;;;5029923;28;20512;-81
2022/05/20 14:42:34;;;;;;;0.17;0.17;;;;;;;;;;5028665;28;20076;-81
2022/05/20 14:45:06;;;;;;;0.30;0.30;;;;;;;;;;5027322;28;20484;-81
2022/05/20 14:47:35;;;;;;;1.38;0.17;;;;;;;;;;5031298;28;20095;-82
2022/05/20 14:50:01;;;;;;;0.10;0.10;;;;;;;;;;5032146;28;20523;-82
2022/05/20 14:52:29;;;;;;;1.00;0.65;;;;;;;;;;5028803;28;20029;-81
2022/05/20 14:54:56;;;;;;;0.20;0.20;;;;;;;;;;5027880;28;20123;-81
2022/05/20 14:57:22;;;;;;;;;;;;;;;;;;5030179;28;20021;-82
2022/05/20 15:00:04;;;;;;;0.65;0.55;;;;;;;;;;5028594;28;20400;-82
2022/05/20 15:02:30;;;;;;;0.10;0.10;;;;;;;;;;5031565;28;20057;-82
2022/05/20 15:04:56;;;;;;;0.00;0.00;;;;;;;;;;5032147;28;20048;-81
2022/05/20 15:07:22;;;;;;;3.35;1.42;;;;;;;;;;5024248;28;20041;-83
2022/05/20 15:09:51;;;;;;;0.00;0.00;;;;;;;;;;5034956;28;20036;-82
2022/05/20 15:12:18;;;;;;;0.63;0.28;;;;;;;;;;5031146;28;20124;-83
2022/05/20 15:14:47;;;;;;;0.10;0.10;;;;;;;;;;5036712;28;20037;-83
2022/05/20 15:17:14;;;;;;;0.50;0.50;;;;;;;;;;5040823;28;20349;-83
2022/05/20 15:19:40;;;;;;;0.55;0.25;;;;;;;;;;5040649;28;20032;-82
2022/05/20 15:22:07;;;;;;;0.65;0.45;;;;;;;;;;5023556;28;20512;-83
2022/05/20 15:24:33;;;;;;;;;;;;;;;;;;5034872;28;20036;-84
2022/05/20 15:27:00;;;;;;;0.15;0.15;;;;;;;;;;5036943;28;19916;-83
2022/05/20 15:29:28;;;;;;;8.73;1.52;;;;;;;;;;5038799;28;20037;-80
2022/05/20 15:34:54;;;;;;;0.40;0.40;;;;;;;;;;5031539;28;20044;-78
2022/05/20 15:37:23;;;;;;;0.10;0.10;;;;;;;;;;5034419;28;20430;-81
2022/05/20 15:39:59;;;;;;;0.28;0.28;;;;;;;;;;5032150;28;20047;-82
2022/05/20 15:42:25;;;;;;;0.65;0.30;;;;;;;;;;5027552;28;20151;-80